Capeville, Virginia
Current Conditions -  °F | °C
As of 8:58 PM on Saturday 22 Nov 2014 (Local Time) from KLFI Reporting Station
Clear Clear  
Wind Chill: 38°   Ceiling: Unl
Heat Index: 41°   Visibility: 10mi
Dew Point: 25°   Wind: 5mph
Humidity: 54%   Direction: 200°SSW
Pressure: 30.36"   Gusts: NA
Location:  37.2°N, 75.96°W
Report Text: KLFI 230158Z AUTO 20004KT 10SM CLR 05/M04 A3036 RMK AO2 SLP288 T00491038 $
Loading
Personal Weather Stations






























Interactive Weather Map New forecast layout! Learn more

10-Day Weather Forecast

Advertisements
Track Severe Weather on mobile